sensor_id;sensor_type;location;lat;lon;timestamp;P1;durP1;ratioP1;P2;durP2;ratioP2
32505;SDS011;18955;51.224;8.482;2022-10-16T00:03:00;9.05;;;1.45;;
32505;SDS011;18955;51.224;8.482;2022-10-16T00:07:53;7.72;;;1.17;;
32505;SDS011;18955;51.224;8.482;2022-10-16T00:10:19;2.00;;;1.10;;
32505;SDS011;18955;51.224;8.482;2022-10-16T00:12:46;7.40;;;1.45;;
32505;SDS011;18955;51.224;8.482;2022-10-16T00:15:12;9.85;;;0.90;;
32505;SDS011;18955;51.224;8.482;2022-10-16T00:17:39;2.70;;;1.13;;
32505;SDS011;18955;51.224;8.482;2022-10-16T00:20:05;4.38;;;1.20;;
32505;SDS011;18955;51.224;8.482;2022-10-16T00:22:32;5.90;;;1.13;;
32505;SDS011;18955;51.224;8.482;2022-10-16T00:24:58;3.53;;;1.00;;
32505;SDS011;18955;51.224;8.482;2022-10-16T00:27:24;6.55;;;0.98;;
32505;SDS011;18955;51.224;8.482;2022-10-16T00:29:51;5.28;;;1.30;;
32505;SDS011;18955;51.224;8.482;2022-10-16T00:32:19;10.65;;;1.10;;
32505;SDS011;18955;51.224;8.482;2022-10-16T00:34:46;2.95;;;0.85;;
32505;SDS011;18955;51.224;8.482;2022-10-16T00:37:12;4.65;;;1.20;;
32505;SDS011;18955;51.224;8.482;2022-10-16T00:39:38;7.55;;;1.10;;
32505;SDS011;18955;51.224;8.482;2022-10-16T00:42:05;4.75;;;0.90;;
32505;SDS011;18955;51.224;8.482;2022-10-16T00:47:39;6.40;;;1.10;;
32505;SDS011;18955;51.224;8.482;2022-10-16T00:50:26;2.90;;;1.00;;
32505;SDS011;18955;51.224;8.482;2022-10-16T00:52:53;7.97;;;1.23;;
32505;SDS011;18955;51.224;8.482;2022-10-16T00:55:21;2.80;;;0.90;;
32505;SDS011;18955;51.224;8.482;2022-10-16T01:00:16;3.60;;;0.90;;
32505;SDS011;18955;51.224;8.482;2022-10-16T01:02:51;5.10;;;1.20;;
32505;SDS011;18955;51.224;8.482;2022-10-16T01:05:21;4.03;;;0.90;;
32505;SDS011;18955;51.224;8.482;2022-10-16T01:08:03;2.08;;;0.90;;
32505;SDS011;18955;51.224;8.482;2022-10-16T01:10:45;3.38;;;1.20;;
32505;SDS011;18955;51.224;8.482;2022-10-16T01:16:13;6.10;;;1.10;;
32505;SDS011;18955;51.224;8.482;2022-10-16T01:23:51;11.65;;;1.00;;
32505;SDS011;18955;51.224;8.482;2022-10-16T01:31:59;4.40;;;0.98;;
32505;SDS011;18955;51.224;8.482;2022-10-16T01:34:32;9.73;;;1.30;;
32505;SDS011;18955;51.224;8.482;2022-10-16T01:37:05;6.22;;;0.93;;
32505;SDS011;18955;51.224;8.482;2022-10-16T01:39:38;7.05;;;1.10;;
32505;SDS011;18955;51.224;8.482;2022-10-16T01:42:09;2.50;;;0.90;;
32505;SDS011;18955;51.224;8.482;2022-10-16T01:44:40;6.32;;;1.08;;
32505;SDS011;18955;51.224;8.482;2022-10-16T01:47:08;8.35;;;1.15;;
32505;SDS011;18955;51.224;8.482;2022-10-16T01:49:38;6.07;;;1.10;;
32505;SDS011;18955;51.224;8.482;2022-10-16T01:52:07;4.72;;;0.85;;
32505;SDS011;18955;51.224;8.482;2022-10-16T01:54:37;1.85;;;1.10;;
32505;SDS011;18955;51.224;8.482;2022-10-16T01:57:06;2.30;;;1.10;;
32505;SDS011;18955;51.224;8.482;2022-10-16T01:59:38;3.78;;;0.98;;
32505;SDS011;18955;51.224;8.482;2022-10-16T02:02:17;2.15;;;0.95;;
32505;SDS011;18955;51.224;8.482;2022-10-16T02:04:47;5.43;;;1.13;;
32505;SDS011;18955;51.224;8.482;2022-10-16T02:07:18;4.43;;;1.10;;
32505;SDS011;18955;51.224;8.482;2022-10-16T02:09:45;3.03;;;0.95;;
32505;SDS011;18955;51.224;8.482;2022-10-16T02:12:23;4.38;;;1.75;;
32505;SDS011;18955;51.224;8.482;2022-10-16T02:14:53;3.45;;;1.08;;
32505;SDS011;18955;51.224;8.482;2022-10-16T02:19:46;7.90;;;1.15;;
32505;SDS011;18955;51.224;8.482;2022-10-16T02:22:34;7.57;;;1.15;;
32505;SDS011;18955;51.224;8.482;2022-10-16T02:25:11;3.65;;;1.13;;
32505;SDS011;18955;51.224;8.482;2022-10-16T02:27:55;3.63;;;1.33;;
32505;SDS011;18955;51.224;8.482;2022-10-16T02:30:34;6.35;;;1.35;;
32505;SDS011;18955;51.224;8.482;2022-10-16T02:33:06;2.40;;;1.05;;
32505;SDS011;18955;51.224;8.482;2022-10-16T02:35:35;2.00;;;1.15;;
32505;SDS011;18955;51.224;8.482;2022-10-16T02:38:02;9.93;;;1.50;;
32505;SDS011;18955;51.224;8.482;2022-10-16T02:40:30;7.57;;;1.60;;
32505;SDS011;18955;51.224;8.482;2022-10-16T02:42:56;3.05;;;1.23;;
32505;SDS011;18955;51.224;8.482;2022-10-16T02:45:23;2.38;;;1.35;;
32505;SDS011;18955;51.224;8.482;2022-10-16T02:47:49;8.48;;;2.00;;
32505;SDS011;18955;51.224;8.482;2022-10-16T02:50:15;3.85;;;1.50;;
32505;SDS011;18955;51.224;8.482;2022-10-16T02:52:42;4.47;;;1.95;;
32505;SDS011;18955;51.224;8.482;2022-10-16T02:55:08;3.78;;;1.75;;
32505;SDS011;18955;51.224;8.482;2022-10-16T02:57:34;2.65;;;1.77;;
32505;SDS011;18955;51.224;8.482;2022-10-16T03:00:06;4.15;;;2.00;;
32505;SDS011;18955;51.224;8.482;2022-10-16T03:02:36;17.70;;;2.33;;
32505;SDS011;18955;51.224;8.482;2022-10-16T03:05:03;7.18;;;1.98;;
32505;SDS011;18955;51.224;8.482;2022-10-16T03:07:29;6.82;;;2.38;;
32505;SDS011;18955;51.224;8.482;2022-10-16T03:09:56;11.10;;;2.33;;
32505;SDS011;18955;51.224;8.482;2022-10-16T03:14:48;10.18;;;2.40;;
32505;SDS011;18955;51.224;8.482;2022-10-16T03:17:15;2.90;;;1.25;;
32505;SDS011;18955;51.224;8.482;2022-10-16T03:19:42;4.28;;;1.70;;
32505;SDS011;18955;51.224;8.482;2022-10-16T03:22:08;6.93;;;2.00;;
32505;SDS011;18955;51.224;8.482;2022-10-16T03:24:34;14.10;;;4.18;;
32505;SDS011;18955;51.224;8.482;2022-10-16T03:27:03;8.88;;;2.47;;
32505;SDS011;18955;51.224;8.482;2022-10-16T03:29:30;12.07;;;2.85;;
32505;SDS011;18955;51.224;8.482;2022-10-16T03:31:57;4.88;;;2.20;;
32505;SDS011;18955;51.224;8.482;2022-10-16T03:34:24;4.95;;;2.40;;
32505;SDS011;18955;51.224;8.482;2022-10-16T03:36:51;6.00;;;2.67;;
32505;SDS011;18955;51.224;8.482;2022-10-16T03:39:18;5.55;;;2.40;;
32505;SDS011;18955;51.224;8.482;2022-10-16T03:41:44;6.22;;;2.17;;
32505;SDS011;18955;51.224;8.482;2022-10-16T03:44:12;4.35;;;1.98;;
32505;SDS011;18955;51.224;8.482;2022-10-16T03:49:05;4.20;;;2.22;;
32505;SDS011;18955;51.224;8.482;2022-10-16T03:51:31;4.45;;;1.70;;
32505;SDS011;18955;51.224;8.482;2022-10-16T03:53:57;3.95;;;1.40;;
32505;SDS011;18955;51.224;8.482;2022-10-16T03:56:23;6.07;;;1.88;;
32505;SDS011;18955;51.224;8.482;2022-10-16T03:58:49;4.15;;;1.65;;
32505;SDS011;18955;51.224;8.482;2022-10-16T04:01:16;3.75;;;1.55;;
32505;SDS011;18955;51.224;8.482;2022-10-16T04:03:42;1.52;;;1.42;;
32505;SDS011;18955;51.224;8.482;2022-10-16T04:06:08;4.00;;;1.33;;
32505;SDS011;18955;51.224;8.482;2022-10-16T04:08:34;5.32;;;1.83;;
32505;SDS011;18955;51.224;8.482;2022-10-16T04:11:02;4.45;;;1.65;;
32505;SDS011;18955;51.224;8.482;2022-10-16T04:13:29;3.72;;;1.88;;
32505;SDS011;18955;51.224;8.482;2022-10-16T04:15:55;4.13;;;1.73;;
32505;SDS011;18955;51.224;8.482;2022-10-16T04:18:21;2.85;;;1.60;;
32505;SDS011;18955;51.224;8.482;2022-10-16T04:20:48;7.43;;;1.90;;
32505;SDS011;18955;51.224;8.482;2022-10-16T04:23:14;3.85;;;1.85;;
32505;SDS011;18955;51.224;8.482;2022-10-16T04:25:40;2.28;;;1.08;;
32505;SDS011;18955;51.224;8.482;2022-10-16T04:28:06;1.00;;;0.95;;
32505;SDS011;18955;51.224;8.482;2022-10-16T04:30:33;3.83;;;1.73;;
32505;SDS011;18955;51.224;8.482;2022-10-16T04:32:59;3.25;;;1.55;;
32505;SDS011;18955;51.224;8.482;2022-10-16T04:35:25;1.85;;;1.48;;
32505;SDS011;18955;51.224;8.482;2022-10-16T04:37:51;6.18;;;2.00;;
32505;SDS011;18955;51.224;8.482;2022-10-16T04:40:17;3.63;;;1.55;;
32505;SDS011;18955;51.224;8.482;2022-10-16T04:42:44;8.52;;;1.42;;
32505;SDS011;18955;51.224;8.482;2022-10-16T04:45:10;5.90;;;1.05;;
32505;SDS011;18955;51.224;8.482;2022-10-16T04:47:36;1.20;;;1.10;;
32505;SDS011;18955;51.224;8.482;2022-10-16T04:50:03;3.00;;;1.23;;
32505;SDS011;18955;51.224;8.482;2022-10-16T04:52:29;3.50;;;1.48;;
32505;SDS011;18955;51.224;8.482;2022-10-16T04:54:57;1.60;;;1.15;;
32505;SDS011;18955;51.224;8.482;2022-10-16T04:57:27;4.72;;;1.80;;
32505;SDS011;18955;51.224;8.482;2022-10-16T04:59:53;4.20;;;1.33;;
32505;SDS011;18955;51.224;8.482;2022-10-16T05:02:20;6.18;;;1.63;;
32505;SDS011;18955;51.224;8.482;2022-10-16T05:04:46;2.80;;;1.60;;
32505;SDS011;18955;51.224;8.482;2022-10-16T05:07:12;1.63;;;1.38;;
32505;SDS011;18955;51.224;8.482;2022-10-16T05:09:38;3.70;;;1.33;;
32505;SDS011;18955;51.224;8.482;2022-10-16T05:12:05;7.53;;;2.42;;
32505;SDS011;18955;51.224;8.482;2022-10-16T05:14:31;4.07;;;1.55;;
32505;SDS011;18955;51.224;8.482;2022-10-16T05:16:57;5.00;;;1.60;;
32505;SDS011;18955;51.224;8.482;2022-10-16T05:19:25;2.80;;;1.42;;
32505;SDS011;18955;51.224;8.482;2022-10-16T05:21:51;8.18;;;1.58;;
32505;SDS011;18955;51.224;8.482;2022-10-16T05:24:17;2.33;;;1.50;;
32505;SDS011;18955;51.224;8.482;2022-10-16T05:26:43;3.53;;;1.60;;
32505;SDS011;18955;51.224;8.482;2022-10-16T05:29:10;1.42;;;1.08;;
32505;SDS011;18955;51.224;8.482;2022-10-16T05:31:36;3.63;;;1.63;;
32505;SDS011;18955;51.224;8.482;2022-10-16T05:34:02;4.10;;;1.30;;
32505;SDS011;18955;51.224;8.482;2022-10-16T05:36:28;4.63;;;1.35;;
32505;SDS011;18955;51.224;8.482;2022-10-16T05:38:55;6.30;;;1.70;;
32505;SDS011;18955;51.224;8.482;2022-10-16T05:41:21;3.88;;;0.85;;
32505;SDS011;18955;51.224;8.482;2022-10-16T05:43:49;6.13;;;1.30;;
32505;SDS011;18955;51.224;8.482;2022-10-16T05:46:15;1.17;;;1.00;;
32505;SDS011;18955;51.224;8.482;2022-10-16T05:48:42;3.75;;;1.13;;
32505;SDS011;18955;51.224;8.482;2022-10-16T05:51:09;1.38;;;1.00;;
32505;SDS011;18955;51.224;8.482;2022-10-16T05:53:37;3.55;;;1.02;;
32505;SDS011;18955;51.224;8.482;2022-10-16T05:56:05;2.20;;;0.85;;
32505;SDS011;18955;51.224;8.482;2022-10-16T05:58:33;1.63;;;0.95;;
32505;SDS011;18955;51.224;8.482;2022-10-16T06:01:03;4.53;;;1.00;;
32505;SDS011;18955;51.224;8.482;2022-10-16T06:03:32;5.95;;;0.90;;
32505;SDS011;18955;51.224;8.482;2022-10-16T06:05:59;1.50;;;0.90;;
32505;SDS011;18955;51.224;8.482;2022-10-16T06:08:41;2.38;;;0.90;;
32505;SDS011;18955;51.224;8.482;2022-10-16T06:11:09;4.57;;;1.42;;
32505;SDS011;18955;51.224;8.482;2022-10-16T06:13:37;2.42;;;1.00;;
32505;SDS011;18955;51.224;8.482;2022-10-16T06:16:04;2.30;;;0.82;;
32505;SDS011;18955;51.224;8.482;2022-10-16T06:18:31;1.42;;;0.77;;
32505;SDS011;18955;51.224;8.482;2022-10-16T06:20:57;4.20;;;0.80;;
32505;SDS011;18955;51.224;8.482;2022-10-16T06:23:24;2.53;;;0.90;;
32505;SDS011;18955;51.224;8.482;2022-10-16T06:25:51;5.18;;;1.15;;
32505;SDS011;18955;51.224;8.482;2022-10-16T06:28:17;3.08;;;1.30;;
32505;SDS011;18955;51.224;8.482;2022-10-16T06:30:43;2.65;;;1.55;;
32505;SDS011;18955;51.224;8.482;2022-10-16T06:33:10;2.15;;;1.52;;
32505;SDS011;18955;51.224;8.482;2022-10-16T06:35:36;6.93;;;1.80;;
32505;SDS011;18955;51.224;8.482;2022-10-16T06:38:03;3.15;;;1.35;;
32505;SDS011;18955;51.224;8.482;2022-10-16T06:40:29;1.58;;;0.95;;
32505;SDS011;18955;51.224;8.482;2022-10-16T06:42:55;1.38;;;1.23;;
32505;SDS011;18955;51.224;8.482;2022-10-16T06:45:21;2.03;;;1.20;;
32505;SDS011;18955;51.224;8.482;2022-10-16T06:47:48;2.45;;;1.60;;
32505;SDS011;18955;51.224;8.482;2022-10-16T06:50:14;7.05;;;1.27;;
32505;SDS011;18955;51.224;8.482;2022-10-16T06:52:40;4.80;;;1.52;;
32505;SDS011;18955;51.224;8.482;2022-10-16T06:55:06;2.25;;;1.70;;
32505;SDS011;18955;51.224;8.482;2022-10-16T06:57:33;9.15;;;1.90;;
32505;SDS011;18955;51.224;8.482;2022-10-16T06:59:59;2.17;;;1.60;;
32505;SDS011;18955;51.224;8.482;2022-10-16T07:02:25;3.88;;;2.40;;
32505;SDS011;18955;51.224;8.482;2022-10-16T07:04:51;7.35;;;3.03;;
32505;SDS011;18955;51.224;8.482;2022-10-16T07:07:18;8.52;;;3.60;;
32505;SDS011;18955;51.224;8.482;2022-10-16T07:09:44;1.88;;;1.42;;
32505;SDS011;18955;51.224;8.482;2022-10-16T07:12:10;5.03;;;1.95;;
32505;SDS011;18955;51.224;8.482;2022-10-16T07:14:36;4.68;;;2.10;;
32505;SDS011;18955;51.224;8.482;2022-10-16T07:17:02;4.05;;;1.77;;
32505;SDS011;18955;51.224;8.482;2022-10-16T07:19:28;9.85;;;2.60;;
32505;SDS011;18955;51.224;8.482;2022-10-16T07:21:55;5.35;;;2.53;;
32505;SDS011;18955;51.224;8.482;2022-10-16T07:24:22;2.92;;;1.95;;
32505;SDS011;18955;51.224;8.482;2022-10-16T07:26:48;3.83;;;1.63;;
32505;SDS011;18955;51.224;8.482;2022-10-16T07:29:19;1.63;;;1.52;;
32505;SDS011;18955;51.224;8.482;2022-10-16T07:31:46;11.07;;;2.03;;
32505;SDS011;18955;51.224;8.482;2022-10-16T07:34:14;2.03;;;1.50;;
32505;SDS011;18955;51.224;8.482;2022-10-16T07:36:42;1.88;;;1.75;;
32505;SDS011;18955;51.224;8.482;2022-10-16T07:39:08;2.97;;;1.58;;
32505;SDS011;18955;51.224;8.482;2022-10-16T07:41:34;4.13;;;1.80;;
32505;SDS011;18955;51.224;8.482;2022-10-16T07:44:02;7.60;;;2.08;;
32505;SDS011;18955;51.224;8.482;2022-10-16T07:46:29;6.35;;;2.10;;
32505;SDS011;18955;51.224;8.482;2022-10-16T07:48:56;3.65;;;2.00;;
32505;SDS011;18955;51.224;8.482;2022-10-16T07:51:23;4.35;;;1.48;;
32505;SDS011;18955;51.224;8.482;2022-10-16T07:53:51;5.00;;;2.17;;
32505;SDS011;18955;51.224;8.482;2022-10-16T07:56:18;3.50;;;1.83;;
32505;SDS011;18955;51.224;8.482;2022-10-16T07:58:46;7.57;;;2.25;;
32505;SDS011;18955;51.224;8.482;2022-10-16T08:01:15;3.17;;;2.05;;
32505;SDS011;18955;51.224;8.482;2022-10-16T08:03:45;2.30;;;1.90;;
32505;SDS011;18955;51.224;8.482;2022-10-16T08:06:13;5.40;;;2.10;;
32505;SDS011;18955;51.224;8.482;2022-10-16T08:08:40;7.18;;;2.22;;
32505;SDS011;18955;51.224;8.482;2022-10-16T08:11:06;5.53;;;2.85;;
32505;SDS011;18955;51.224;8.482;2022-10-16T08:13:33;7.78;;;2.40;;
32505;SDS011;18955;51.224;8.482;2022-10-16T08:16:00;2.30;;;2.08;;
32505;SDS011;18955;51.224;8.482;2022-10-16T08:20:56;6.80;;;2.60;;
32505;SDS011;18955;51.224;8.482;2022-10-16T08:23:24;4.25;;;2.55;;
32505;SDS011;18955;51.224;8.482;2022-10-16T08:25:54;5.97;;;1.98;;
32505;SDS011;18955;51.224;8.482;2022-10-16T08:28:27;3.90;;;2.13;;
32505;SDS011;18955;51.224;8.482;2022-10-16T08:30:53;9.55;;;2.47;;
32505;SDS011;18955;51.224;8.482;2022-10-16T08:33:19;3.33;;;1.90;;
32505;SDS011;18955;51.224;8.482;2022-10-16T08:35:54;6.65;;;2.20;;
32505;SDS011;18955;51.224;8.482;2022-10-16T08:38:21;4.40;;;2.20;;
32505;SDS011;18955;51.224;8.482;2022-10-16T08:40:47;5.40;;;1.92;;
32505;SDS011;18955;51.224;8.482;2022-10-16T08:48:46;3.05;;;1.85;;
32505;SDS011;18955;51.224;8.482;2022-10-16T08:51:27;5.38;;;1.70;;
32505;SDS011;18955;51.224;8.482;2022-10-16T08:53:58;2.08;;;1.80;;
32505;SDS011;18955;51.224;8.482;2022-10-16T08:56:28;3.20;;;2.00;;
32505;SDS011;18955;51.224;8.482;2022-10-16T08:58:55;2.72;;;1.70;;
32505;SDS011;18955;51.224;8.482;2022-10-16T09:01:25;7.05;;;1.70;;
32505;SDS011;18955;51.224;8.482;2022-10-16T09:07:09;3.42;;;1.10;;
32505;SDS011;18955;51.224;8.482;2022-10-16T09:17:56;1.77;;;1.17;;
32505;SDS011;18955;51.224;8.482;2022-10-16T09:23:30;2.15;;;0.80;;
32505;SDS011;18955;51.224;8.482;2022-10-16T09:25:59;4.88;;;1.00;;
32505;SDS011;18955;51.224;8.482;2022-10-16T09:28:26;5.20;;;0.90;;
32505;SDS011;18955;51.224;8.482;2022-10-16T09:30:53;4.82;;;1.35;;
32505;SDS011;18955;51.224;8.482;2022-10-16T09:33:20;1.40;;;1.30;;
32505;SDS011;18955;51.224;8.482;2022-10-16T09:35:51;1.27;;;0.93;;
32505;SDS011;18955;51.224;8.482;2022-10-16T09:38:29;2.60;;;1.10;;
32505;SDS011;18955;51.224;8.482;2022-10-16T09:46:06;2.80;;;1.17;;
32505;SDS011;18955;51.224;8.482;2022-10-16T09:53:56;3.38;;;1.20;;
32505;SDS011;18955;51.224;8.482;2022-10-16T09:56:31;3.10;;;0.80;;
32505;SDS011;18955;51.224;8.482;2022-10-16T09:59:00;4.82;;;0.98;;
32505;SDS011;18955;51.224;8.482;2022-10-16T10:01:50;3.97;;;0.88;;
32505;SDS011;18955;51.224;8.482;2022-10-16T10:04:19;2.25;;;0.80;;
32505;SDS011;18955;51.224;8.482;2022-10-16T10:06:46;4.22;;;1.08;;
32505;SDS011;18955;51.224;8.482;2022-10-16T10:09:22;1.85;;;0.88;;
32505;SDS011;18955;51.224;8.482;2022-10-16T10:11:57;1.30;;;0.85;;
32505;SDS011;18955;51.224;8.482;2022-10-16T10:14:25;3.38;;;0.60;;
32505;SDS011;18955;51.224;8.482;2022-10-16T10:17:00;1.58;;;0.68;;
32505;SDS011;18955;51.224;8.482;2022-10-16T10:19:36;2.22;;;0.60;;
32505;SDS011;18955;51.224;8.482;2022-10-16T10:22:15;1.45;;;0.60;;
32505;SDS011;18955;51.224;8.482;2022-10-16T10:25:00;3.63;;;0.52;;
32505;SDS011;18955;51.224;8.482;2022-10-16T10:32:40;1.23;;;0.60;;
32505;SDS011;18955;51.224;8.482;2022-10-16T10:38:02;5.10;;;0.60;;
32505;SDS011;18955;51.224;8.482;2022-10-16T10:43:44;1.23;;;0.60;;
32505;SDS011;18955;51.224;8.482;2022-10-16T10:46:23;4.10;;;0.77;;
32505;SDS011;18955;51.224;8.482;2022-10-16T10:49:02;1.40;;;0.50;;
32505;SDS011;18955;51.224;8.482;2022-10-16T11:07:47;1.90;;;0.70;;
32505;SDS011;18955;51.224;8.482;2022-10-16T11:10:32;7.20;;;0.70;;
32505;SDS011;18955;51.224;8.482;2022-10-16T11:15:43;2.65;;;0.70;;
32505;SDS011;18955;51.224;8.482;2022-10-16T11:18:15;0.65;;;0.55;;
32505;SDS011;18955;51.224;8.482;2022-10-16T11:20:47;4.47;;;0.65;;
32505;SDS011;18955;51.224;8.482;2022-10-16T11:23:21;5.47;;;0.82;;
32505;SDS011;18955;51.224;8.482;2022-10-16T11:25:49;7.25;;;0.98;;
32505;SDS011;18955;51.224;8.482;2022-10-16T11:28:19;4.43;;;0.80;;
32505;SDS011;18955;51.224;8.482;2022-10-16T11:30:53;5.88;;;0.70;;
32505;SDS011;18955;51.224;8.482;2022-10-16T11:33:36;1.52;;;0.88;;
32505;SDS011;18955;51.224;8.482;2022-10-16T11:43:43;1.05;;;0.80;;
32505;SDS011;18955;51.224;8.482;2022-10-16T11:46:19;1.67;;;0.65;;
32505;SDS011;18955;51.224;8.482;2022-10-16T11:56:57;3.38;;;0.70;;
32505;SDS011;18955;51.224;8.482;2022-10-16T11:59:35;1.90;;;0.90;;
32505;SDS011;18955;51.224;8.482;2022-10-16T12:02:20;5.53;;;0.80;;
32505;SDS011;18955;51.224;8.482;2022-10-16T12:05:20;2.25;;;0.80;;
32505;SDS011;18955;51.224;8.482;2022-10-16T12:10:29;3.55;;;0.80;;
32505;SDS011;18955;51.224;8.482;2022-10-16T12:12:57;3.17;;;0.80;;
32505;SDS011;18955;51.224;8.482;2022-10-16T12:15:28;0.50;;;0.40;;
32505;SDS011;18955;51.224;8.482;2022-10-16T12:17:59;4.20;;;0.60;;
32505;SDS011;18955;51.224;8.482;2022-10-16T12:20:32;2.85;;;0.50;;
32505;SDS011;18955;51.224;8.482;2022-10-16T12:23:02;3.05;;;0.68;;
32505;SDS011;18955;51.224;8.482;2022-10-16T12:25:34;1.65;;;0.40;;
32505;SDS011;18955;51.224;8.482;2022-10-16T12:30:41;3.33;;;0.70;;
32505;SDS011;18955;51.224;8.482;2022-10-16T12:35:49;0.80;;;0.52;;
32505;SDS011;18955;51.224;8.482;2022-10-16T12:40:56;3.15;;;0.57;;
32505;SDS011;18955;51.224;8.482;2022-10-16T12:43:25;6.90;;;0.90;;
32505;SDS011;18955;51.224;8.482;2022-10-16T12:46:01;4.22;;;0.60;;
32505;SDS011;18955;51.224;8.482;2022-10-16T12:48:30;4.63;;;0.75;;
32505;SDS011;18955;51.224;8.482;2022-10-16T12:50:57;5.97;;;1.23;;
32505;SDS011;18955;51.224;8.482;2022-10-16T12:58:39;2.20;;;0.60;;
32505;SDS011;18955;51.224;8.482;2022-10-16T13:01:36;2.72;;;0.50;;
32505;SDS011;18955;51.224;8.482;2022-10-16T13:09:39;4.30;;;0.80;;
32505;SDS011;18955;51.224;8.482;2022-10-16T13:17:35;2.55;;;0.70;;
32505;SDS011;18955;51.224;8.482;2022-10-16T13:28:31;1.43;;;0.53;;
32505;SDS011;18955;51.224;8.482;2022-10-16T13:30:59;3.22;;;1.02;;
32505;SDS011;18955;51.224;8.482;2022-10-16T13:35:58;3.50;;;0.80;;
32505;SDS011;18955;51.224;8.482;2022-10-16T13:38:26;2.47;;;0.60;;
32505;SDS011;18955;51.224;8.482;2022-10-16T13:41:01;2.47;;;1.05;;
32505;SDS011;18955;51.224;8.482;2022-10-16T13:48:29;4.45;;;0.50;;
32505;SDS011;18955;51.224;8.482;2022-10-16T13:50:58;2.75;;;0.60;;
32505;SDS011;18955;51.224;8.482;2022-10-16T13:53:25;2.72;;;0.90;;
32505;SDS011;18955;51.224;8.482;2022-10-16T13:55:52;3.30;;;0.40;;
32505;SDS011;18955;51.224;8.482;2022-10-16T13:58:18;1.17;;;0.45;;
32505;SDS011;18955;51.224;8.482;2022-10-16T14:01:01;4.75;;;0.77;;
32505;SDS011;18955;51.224;8.482;2022-10-16T14:03:40;5.50;;;0.80;;
32505;SDS011;18955;51.224;8.482;2022-10-16T14:06:11;3.13;;;0.50;;
32505;SDS011;18955;51.224;8.482;2022-10-16T14:09:20;7.53;;;0.60;;
32505;SDS011;18955;51.224;8.482;2022-10-16T14:11:44;11.95;;;0.73;;
32505;SDS011;18955;51.224;8.482;2022-10-16T14:14:13;4.57;;;0.60;;
32505;SDS011;18955;51.224;8.482;2022-10-16T14:16:41;5.07;;;0.70;;
32505;SDS011;18955;51.224;8.482;2022-10-16T14:19:13;0.93;;;0.40;;
32505;SDS011;18955;51.224;8.482;2022-10-16T14:21:48;5.38;;;0.90;;
32505;SDS011;18955;51.224;8.482;2022-10-16T14:26:58;3.67;;;0.52;;
32505;SDS011;18955;51.224;8.482;2022-10-16T14:31:56;2.92;;;0.93;;
32505;SDS011;18955;51.224;8.482;2022-10-16T14:34:31;6.88;;;0.52;;
32505;SDS011;18955;51.224;8.482;2022-10-16T14:36:59;6.05;;;0.60;;
32505;SDS011;18955;51.224;8.482;2022-10-16T14:39:32;3.92;;;0.60;;
32505;SDS011;18955;51.224;8.482;2022-10-16T14:41:59;3.13;;;0.60;;
32505;SDS011;18955;51.224;8.482;2022-10-16T14:44:28;0.60;;;0.40;;
32505;SDS011;18955;51.224;8.482;2022-10-16T14:46:56;1.52;;;0.50;;
32505;SDS011;18955;51.224;8.482;2022-10-16T14:49:23;5.57;;;0.80;;
32505;SDS011;18955;51.224;8.482;2022-10-16T14:51:49;7.45;;;0.55;;
32505;SDS011;18955;51.224;8.482;2022-10-16T14:54:18;1.40;;;0.60;;
32505;SDS011;18955;51.224;8.482;2022-10-16T14:56:46;3.08;;;0.65;;
32505;SDS011;18955;51.224;8.482;2022-10-16T15:02:02;3.28;;;0.70;;
32505;SDS011;18955;51.224;8.482;2022-10-16T15:04:41;7.47;;;1.00;;
32505;SDS011;18955;51.224;8.482;2022-10-16T15:07:07;8.70;;;0.70;;
32505;SDS011;18955;51.224;8.482;2022-10-16T15:09:33;6.68;;;0.77;;
32505;SDS011;18955;51.224;8.482;2022-10-16T15:12:00;7.05;;;0.70;;
32505;SDS011;18955;51.224;8.482;2022-10-16T15:14:26;3.75;;;0.77;;
32505;SDS011;18955;51.224;8.482;2022-10-16T15:16:52;6.53;;;0.60;;
32505;SDS011;18955;51.224;8.482;2022-10-16T15:19:18;12.23;;;0.60;;
32505;SDS011;18955;51.224;8.482;2022-10-16T15:21:44;3.97;;;0.47;;
32505;SDS011;18955;51.224;8.482;2022-10-16T15:24:12;3.95;;;0.68;;
32505;SDS011;18955;51.224;8.482;2022-10-16T15:26:39;15.63;;;1.63;;
32505;SDS011;18955;51.224;8.482;2022-10-16T15:29:05;8.50;;;0.85;;
32505;SDS011;18955;51.224;8.482;2022-10-16T15:31:32;10.65;;;0.82;;
32505;SDS011;18955;51.224;8.482;2022-10-16T15:33:58;7.97;;;1.08;;
32505;SDS011;18955;51.224;8.482;2022-10-16T15:36:30;11.95;;;1.00;;
32505;SDS011;18955;51.224;8.482;2022-10-16T15:39:02;3.40;;;0.70;;
32505;SDS011;18955;51.224;8.482;2022-10-16T15:41:30;1.75;;;0.85;;
32505;SDS011;18955;51.224;8.482;2022-10-16T15:43:56;4.85;;;0.68;;
32505;SDS011;18955;51.224;8.482;2022-10-16T15:46:23;1.25;;;0.40;;
32505;SDS011;18955;51.224;8.482;2022-10-16T15:48:50;8.50;;;0.52;;
32505;SDS011;18955;51.224;8.482;2022-10-16T15:51:21;4.57;;;0.60;;
32505;SDS011;18955;51.224;8.482;2022-10-16T15:53:47;2.95;;;0.50;;
32505;SDS011;18955;51.224;8.482;2022-10-16T15:56:13;6.43;;;0.60;;
32505;SDS011;18955;51.224;8.482;2022-10-16T15:58:42;4.70;;;0.95;;
32505;SDS011;18955;51.224;8.482;2022-10-16T16:01:09;7.47;;;0.60;;
32505;SDS011;18955;51.224;8.482;2022-10-16T16:03:37;5.70;;;0.60;;
32505;SDS011;18955;51.224;8.482;2022-10-16T16:06:06;7.93;;;0.70;;
32505;SDS011;18955;51.224;8.482;2022-10-16T16:08:35;5.22;;;0.73;;
32505;SDS011;18955;51.224;8.482;2022-10-16T16:11:03;13.30;;;0.55;;
32505;SDS011;18955;51.224;8.482;2022-10-16T16:13:32;7.38;;;1.25;;
32505;SDS011;18955;51.224;8.482;2022-10-16T16:15:58;6.90;;;0.68;;
32505;SDS011;18955;51.224;8.482;2022-10-16T16:18:25;4.63;;;1.05;;
32505;SDS011;18955;51.224;8.482;2022-10-16T16:20:51;11.07;;;0.93;;
32505;SDS011;18955;51.224;8.482;2022-10-16T16:23:18;9.50;;;1.00;;
32505;SDS011;18955;51.224;8.482;2022-10-16T16:25:45;11.52;;;1.20;;
32505;SDS011;18955;51.224;8.482;2022-10-16T16:28:27;5.85;;;0.70;;
32505;SDS011;18955;51.224;8.482;2022-10-16T16:30:53;9.70;;;0.80;;
32505;SDS011;18955;51.224;8.482;2022-10-16T16:33:19;2.78;;;0.50;;
32505;SDS011;18955;51.224;8.482;2022-10-16T16:35:45;4.13;;;0.45;;
32505;SDS011;18955;51.224;8.482;2022-10-16T16:38:12;6.93;;;0.30;;
32505;SDS011;18955;51.224;8.482;2022-10-16T16:40:38;9.10;;;0.70;;
32505;SDS011;18955;51.224;8.482;2022-10-16T16:43:04;5.93;;;0.70;;
32505;SDS011;18955;51.224;8.482;2022-10-16T16:45:30;1.02;;;0.45;;
32505;SDS011;18955;51.224;8.482;2022-10-16T16:48:01;5.60;;;0.80;;
32505;SDS011;18955;51.224;8.482;2022-10-16T16:50:28;3.13;;;0.75;;
32505;SDS011;18955;51.224;8.482;2022-10-16T16:52:54;2.38;;;1.08;;
32505;SDS011;18955;51.224;8.482;2022-10-16T16:55:20;5.20;;;0.55;;
32505;SDS011;18955;51.224;8.482;2022-10-16T16:57:47;2.60;;;0.38;;
32505;SDS011;18955;51.224;8.482;2022-10-16T17:00:14;3.92;;;0.75;;
32505;SDS011;18955;51.224;8.482;2022-10-16T17:02:40;3.25;;;0.40;;
32505;SDS011;18955;51.224;8.482;2022-10-16T17:05:08;5.22;;;0.77;;
32505;SDS011;18955;51.224;8.482;2022-10-16T17:07:35;1.63;;;0.50;;
32505;SDS011;18955;51.224;8.482;2022-10-16T17:10:01;4.75;;;0.50;;
32505;SDS011;18955;51.224;8.482;2022-10-16T17:12:29;10.35;;;0.82;;
32505;SDS011;18955;51.224;8.482;2022-10-16T17:14:56;11.05;;;1.00;;
32505;SDS011;18955;51.224;8.482;2022-10-16T17:17:22;3.50;;;0.50;;
32505;SDS011;18955;51.224;8.482;2022-10-16T17:19:49;1.42;;;0.52;;
32505;SDS011;18955;51.224;8.482;2022-10-16T17:22:16;1.95;;;0.47;;
32505;SDS011;18955;51.224;8.482;2022-10-16T17:24:43;4.15;;;0.50;;
32505;SDS011;18955;51.224;8.482;2022-10-16T17:27:10;0.40;;;0.40;;
32505;SDS011;18955;51.224;8.482;2022-10-16T17:29:37;11.32;;;1.05;;
32505;SDS011;18955;51.224;8.482;2022-10-16T17:32:03;1.65;;;0.60;;
32505;SDS011;18955;51.224;8.482;2022-10-16T17:34:29;8.15;;;0.90;;
32505;SDS011;18955;51.224;8.482;2022-10-16T17:36:55;4.50;;;0.47;;
32505;SDS011;18955;51.224;8.482;2022-10-16T17:39:22;6.88;;;0.73;;